National Weather Service United States Department of Commerce

Beta Nears the Texas Coast; Teddy Brings Swells and Rip Currents to the East Coast

Beta will bring the risk of flooding from the middle Texas coast to southeast Louisiana. Life-threatening storm surge may occur along portions of the Texas and Louisiana coast through Tuesday. Rainfall will also gradually spread across the Southeast U.S. through the week. Hurricane Teddy will remain in the Atlantic but bring swells, dangerous surf, and rip currents to much of the east coast. Read More >

Crosswind/Headwind components for: EWR

Latest observation as of 021851Z
METAR KEWR 021851Z 03008G19KT 10SM SCT055 BKN250 26/12 A3008 RMK AO2
 
Wind Direction: 30 degrees
Wind Speed:        8 knots
Gust Speed:         19 knots
 
Based on sustained speed:
Crosswind Rwy 04/22: 1 knot
Crosswind Rwy 11/29: 7 knots
Headwind Rwy 04: 8 knots
Headwind Rwy 11: 3 knots
Average of sustained/gust speeds:
Crosswind Rwy 04/22: 1 knot
Crosswind Rwy 11/29: 12 knots
 
 
Based on gust speed:
Crosswind Rwy 04/22: 1 knot
Crosswind Rwy 11/29: 17 knots